createdAt,value
2023-04-27T00:00:42.949Z,2.64
2023-04-27T00:01:43.001Z,2.50
2023-04-27T00:02:43.072Z,2.87
2023-04-27T00:03:43.238Z,2.08
2023-04-27T00:04:43.631Z,2.53
2023-04-27T00:05:43.196Z,2.59
2023-04-27T00:06:43.959Z,2.66
2023-04-27T00:07:43.074Z,2.78
2023-04-27T00:08:43.073Z,2.60
2023-04-27T00:09:43.477Z,2.51
2023-04-27T00:10:43.124Z,2.91
2023-04-27T00:11:43.156Z,3.08
2023-04-27T00:12:43.207Z,2.82
2023-04-27T00:13:43.187Z,2.48
2023-04-27T00:14:43.482Z,2.80
2023-04-27T00:15:43.215Z,2.62
2023-04-27T00:16:43.287Z,2.88
2023-04-27T00:17:43.319Z,2.66
2023-04-27T00:18:43.270Z,2.95
2023-04-27T00:19:43.330Z,3.30
2023-04-27T00:20:43.317Z,3.02
2023-04-27T00:21:43.344Z,2.38
2023-04-27T00:22:43.343Z,2.56
2023-04-27T00:23:43.379Z,2.85
2023-04-27T00:24:43.403Z,1.99
2023-04-27T00:25:43.470Z,2.39
2023-04-27T00:26:43.436Z,3.13
2023-04-27T00:27:43.469Z,2.95
2023-04-27T00:28:43.520Z,2.83
2023-04-27T00:29:43.979Z,2.83
2023-04-27T00:30:43.519Z,2.71
2023-04-27T00:31:43.579Z,2.40
2023-04-27T00:32:43.577Z,2.26
2023-04-27T00:33:43.608Z,3.16
2023-04-27T00:34:43.587Z,2.52
2023-04-27T00:35:43.974Z,2.72
2023-04-27T00:36:43.632Z,2.75
2023-04-27T00:37:43.685Z,2.53
2023-04-27T00:38:43.711Z,2.22
2023-04-27T00:39:43.696Z,2.62
2023-04-27T00:40:44.000Z,2.87
2023-04-27T00:41:43.747Z,2.80
2023-04-27T00:42:43.742Z,2.58
2023-04-27T00:43:43.797Z,3.24
2023-04-27T00:44:43.852Z,2.50
2023-04-27T00:45:43.881Z,2.42
2023-04-27T00:46:43.821Z,3.01
2023-04-27T00:47:43.930Z,2.51
2023-04-27T00:48:43.912Z,2.80
2023-04-27T00:49:43.920Z,2.26
2023-04-27T00:50:43.931Z,2.40
2023-04-27T00:51:43.934Z,2.72
2023-04-27T00:52:44.012Z,2.61
2023-04-27T00:53:43.969Z,2.55
2023-04-27T00:54:44.030Z,2.49
2023-04-27T00:55:44.028Z,2.27
2023-04-27T00:56:44.041Z,2.86
2023-04-27T00:57:44.079Z,2.73
2023-04-27T00:58:44.085Z,2.27
2023-04-27T00:59:44.112Z,2.45
2023-04-27T01:00:44.121Z,2.49
2023-04-27T01:01:44.172Z,2.48
2023-04-27T01:02:44.290Z,2.48
2023-04-27T01:03:44.360Z,2.66
2023-04-27T01:04:44.247Z,2.78
2023-04-27T01:05:44.239Z,2.86
2023-04-27T01:06:44.248Z,2.61
2023-04-27T01:07:44.276Z,2.74
2023-04-27T01:08:44.287Z,2.72
2023-04-27T01:09:44.302Z,2.54
2023-04-27T01:10:44.341Z,2.49
2023-04-27T01:11:44.362Z,2.43
2023-04-27T01:12:44.363Z,2.31
2023-04-27T01:13:44.380Z,1.97
2023-04-27T01:14:44.433Z,2.66
2023-04-27T01:15:44.411Z,2.10
2023-04-27T01:16:44.525Z,2.53
2023-04-27T01:17:44.486Z,2.47
2023-04-27T01:18:44.511Z,2.49
2023-04-27T01:19:44.522Z,2.61
2023-04-27T01:20:44.524Z,2.39
2023-04-27T01:21:44.566Z,2.41
2023-04-27T01:22:44.577Z,2.95
2023-04-27T01:23:44.592Z,2.33
2023-04-27T01:24:44.628Z,2.82
2023-04-27T01:25:44.683Z,2.58
2023-04-27T01:26:44.680Z,2.50
2023-04-27T01:27:44.713Z,2.45
2023-04-27T01:28:44.740Z,2.66
2023-04-27T01:29:44.776Z,2.59
2023-04-27T01:30:44.765Z,3.09
2023-04-27T01:31:44.831Z,2.53
2023-04-27T01:32:44.879Z,2.47
2023-04-27T01:33:44.862Z,2.76
2023-04-27T01:34:44.953Z,2.65
2023-04-27T01:35:44.879Z,3.11
2023-04-27T01:36:44.913Z,2.46
2023-04-27T01:37:44.939Z,2.72
2023-04-27T01:38:44.998Z,2.22
2023-04-27T01:39:45.048Z,2.76
2023-04-27T01:40:45.065Z,2.25
2023-04-27T01:41:45.056Z,2.71
2023-04-27T01:42:45.072Z,2.43
2023-04-27T01:43:45.079Z,2.49
2023-04-27T01:44:45.076Z,2.33
2023-04-27T01:45:45.086Z,2.68
2023-04-27T01:46:45.223Z,2.39
2023-04-27T01:47:45.139Z,2.82
2023-04-27T01:48:45.133Z,3.08
2023-04-27T01:49:45.177Z,2.59
2023-04-27T01:50:45.161Z,2.63
2023-04-27T01:51:45.132Z,2.51
2023-04-27T01:52:45.164Z,2.53
2023-04-27T01:53:45.161Z,3.30
2023-04-27T01:54:45.198Z,2.76
2023-04-27T01:55:45.210Z,2.92
2023-04-27T01:56:45.228Z,2.44
2023-04-27T01:57:45.235Z,2.40
2023-04-27T01:58:45.229Z,2.33
2023-04-27T01:59:45.285Z,2.56
2023-04-27T02:00:45.254Z,2.42
2023-04-27T02:01:45.339Z,2.43
2023-04-27T02:02:45.429Z,2.54
2023-04-27T02:03:45.531Z,2.66
2023-04-27T02:04:45.553Z,3.18
2023-04-27T02:05:45.333Z,2.37
2023-04-27T02:06:45.337Z,3.27
2023-04-27T02:07:45.341Z,2.89
2023-04-27T02:08:45.394Z,2.70
2023-04-27T02:09:45.406Z,2.59
2023-04-27T02:10:45.430Z,2.45
2023-04-27T02:11:45.451Z,2.12
2023-04-27T02:12:45.438Z,3.12
2023-04-27T02:13:45.492Z,2.48
2023-04-27T02:14:45.503Z,2.46
2023-04-27T02:15:45.522Z,2.93
2023-04-27T02:16:45.507Z,2.69
2023-04-27T02:17:45.581Z,2.25
2023-04-27T02:18:45.527Z,2.16
2023-04-27T02:19:45.579Z,2.82
2023-04-27T02:20:45.574Z,2.30
2023-04-27T02:21:45.612Z,2.62
2023-04-27T02:22:45.588Z,2.67
2023-04-27T02:23:45.628Z,2.49
2023-04-27T02:24:45.649Z,2.60
2023-04-27T02:25:45.692Z,2.92
2023-04-27T02:26:45.683Z,2.30
2023-04-27T02:27:45.696Z,2.87
2023-04-27T02:28:45.702Z,2.63
2023-04-27T02:29:45.748Z,2.64
2023-04-27T02:30:45.739Z,2.78
2023-04-27T02:31:45.854Z,2.86
2023-04-27T02:32:45.824Z,2.45
2023-04-27T02:33:45.811Z,2.24
2023-04-27T02:34:45.848Z,2.49
2023-04-27T02:35:45.885Z,2.47
2023-04-27T02:36:45.904Z,2.39
2023-04-27T02:37:45.962Z,2.51
2023-04-27T02:38:45.904Z,2.86
2023-04-27T02:39:45.939Z,3.03
2023-04-27T02:40:45.999Z,2.41
2023-04-27T02:41:45.960Z,2.78
2023-04-27T02:42:46.002Z,2.78
2023-04-27T02:43:46.033Z,2.41
2023-04-27T02:44:46.068Z,2.23
2023-04-27T02:45:46.073Z,2.36
2023-04-27T02:46:46.105Z,2.18
2023-04-27T02:47:46.121Z,2.47
2023-04-27T02:48:46.096Z,3.02
2023-04-27T02:49:46.143Z,2.69
2023-04-27T02:50:46.169Z,2.76
2023-04-27T02:51:46.167Z,2.65
2023-04-27T02:52:46.182Z,2.45
2023-04-27T02:53:46.186Z,2.61
2023-04-27T02:54:46.238Z,2.50
2023-04-27T02:55:46.241Z,2.79
2023-04-27T02:56:46.276Z,2.80
2023-04-27T02:57:46.353Z,2.09
2023-04-27T02:58:46.353Z,2.53
2023-04-27T02:59:46.446Z,2.54
2023-04-27T03:00:48.167Z,2.53
2023-04-27T03:01:46.521Z,2.62
2023-04-27T03:02:46.546Z,2.24
2023-04-27T03:03:46.689Z,2.76
2023-04-27T03:04:46.566Z,2.59
2023-04-27T03:05:46.683Z,2.41
2023-04-27T03:06:46.619Z,2.82
2023-04-27T03:07:46.689Z,2.50
2023-04-27T03:08:46.673Z,2.63
2023-04-27T03:09:47.046Z,3.02
2023-04-27T03:10:46.737Z,2.50
2023-04-27T03:11:46.747Z,2.61
2023-04-27T03:12:46.851Z,2.17
2023-04-27T03:13:46.863Z,2.79
2023-04-27T03:14:46.906Z,2.83
2023-04-27T03:15:46.905Z,2.91
2023-04-27T03:16:47.055Z,2.82
2023-04-27T03:17:47.073Z,2.48
2023-04-27T03:18:47.026Z,2.58
2023-04-27T03:19:47.050Z,2.84
2023-04-27T03:20:47.090Z,2.53
2023-04-27T03:21:47.102Z,2.93
2023-04-27T03:22:47.151Z,2.66
2023-04-27T03:23:47.161Z,2.44
2023-04-27T03:24:47.200Z,2.40
2023-04-27T03:25:47.565Z,2.30
2023-04-27T03:26:47.272Z,2.43
2023-04-27T03:27:47.321Z,2.70
2023-04-27T03:28:47.320Z,2.97
2023-04-27T03:29:47.356Z,2.68
2023-04-27T03:30:47.416Z,2.19
2023-04-27T03:31:47.496Z,2.50
2023-04-27T03:32:48.121Z,2.80
2023-04-27T03:33:47.488Z,2.32
2023-04-27T03:34:47.486Z,2.65
2023-04-27T03:35:47.526Z,2.41
2023-04-27T03:36:47.576Z,2.71
2023-04-27T03:37:47.632Z,2.21
2023-04-27T03:38:47.614Z,2.18
2023-04-27T03:39:47.681Z,2.82
2023-04-27T03:40:47.746Z,2.42
2023-04-27T03:41:47.750Z,2.62
2023-04-27T03:42:47.817Z,2.66
2023-04-27T03:43:47.802Z,2.60
2023-04-27T03:44:47.820Z,2.92
2023-04-27T03:45:47.905Z,2.88
2023-04-27T03:46:47.912Z,2.71
2023-04-27T03:47:48.035Z,2.78
2023-04-27T03:48:47.973Z,2.63
2023-04-27T03:49:48.020Z,2.42
2023-04-27T03:50:48.102Z,2.55
2023-04-27T03:51:48.076Z,2.22
2023-04-27T03:52:48.103Z,2.89
2023-04-27T03:53:48.194Z,2.78
2023-04-27T03:54:48.219Z,2.62
2023-04-27T03:55:48.236Z,2.65
2023-04-27T03:56:48.265Z,2.67
2023-04-27T03:57:48.308Z,2.62
2023-04-27T03:58:48.307Z,2.53
2023-04-27T03:59:48.354Z,2.74
2023-04-27T04:00:48.364Z,3.05
2023-04-27T04:01:48.402Z,2.62
2023-04-27T04:02:48.584Z,2.51
2023-04-27T04:03:48.629Z,2.61
2023-04-27T04:04:48.681Z,2.55
2023-04-27T04:05:48.568Z,2.72
2023-04-27T04:06:48.580Z,2.17
2023-04-27T04:07:48.655Z,2.42
2023-04-27T04:08:48.618Z,2.24
2023-04-27T04:09:48.658Z,2.97
2023-04-27T04:10:48.689Z,2.83
2023-04-27T04:11:48.736Z,3.12
2023-04-27T04:12:48.796Z,2.50
2023-04-27T04:13:48.808Z,2.80
2023-04-27T04:14:48.856Z,2.66
2023-04-27T04:15:48.903Z,2.52
2023-04-27T04:16:48.890Z,2.86
2023-04-27T04:17:48.984Z,2.70
2023-04-27T04:18:48.963Z,2.93
2023-04-27T04:19:49.001Z,2.33
2023-04-27T04:20:49.100Z,2.70
2023-04-27T04:21:49.060Z,2.40
2023-04-27T04:22:49.097Z,2.59
2023-04-27T04:23:49.129Z,2.75
2023-04-27T04:24:49.138Z,2.75
2023-04-27T04:25:49.181Z,2.79
2023-04-27T04:26:49.206Z,2.48
2023-04-27T04:27:49.262Z,2.66
2023-04-27T04:28:49.264Z,2.78
2023-04-27T04:29:49.326Z,2.30
2023-04-27T04:30:49.351Z,2.58
2023-04-27T04:31:49.444Z,2.63
2023-04-27T04:32:49.426Z,2.46
2023-04-27T04:33:49.416Z,2.43
2023-04-27T04:34:49.532Z,2.05
2023-04-27T04:35:49.527Z,3.01
2023-04-27T04:36:49.536Z,2.45
2023-04-27T04:37:49.578Z,2.50
2023-04-27T04:38:49.582Z,2.88
2023-04-27T04:39:49.627Z,3.09
2023-04-27T04:40:49.649Z,2.71
2023-04-27T04:41:49.708Z,2.58
2023-04-27T04:42:49.713Z,2.43
2023-04-27T04:43:49.762Z,2.16
2023-04-27T04:44:49.789Z,2.60
2023-04-27T04:45:49.785Z,2.75
2023-04-27T04:46:49.870Z,2.66
2023-04-27T04:47:49.938Z,2.58
2023-04-27T04:48:49.938Z,2.75
2023-04-27T04:49:49.931Z,2.65
2023-04-27T04:50:49.968Z,2.59
2023-04-27T04:51:50.009Z,2.74
2023-04-27T04:52:50.034Z,2.61
2023-04-27T04:53:50.056Z,2.98
2023-04-27T04:54:50.121Z,2.71
2023-04-27T04:55:50.590Z,2.69
2023-04-27T04:56:50.157Z,2.06
2023-04-27T04:57:50.235Z,2.87
2023-04-27T04:58:50.189Z,2.66
2023-04-27T04:59:50.288Z,2.60
2023-04-27T05:00:50.611Z,2.64
2023-04-27T05:01:50.365Z,2.42
2023-04-27T05:02:50.487Z,2.63
2023-04-27T05:03:50.429Z,2.92
2023-04-27T05:04:50.480Z,2.93
2023-04-27T05:05:50.590Z,2.44
2023-04-27T05:06:50.483Z,2.49
2023-04-27T05:07:50.521Z,2.35
2023-04-27T05:08:50.508Z,2.52
2023-04-27T05:09:50.549Z,3.00
2023-04-27T05:10:51.101Z,2.74
2023-04-27T05:11:50.640Z,2.40
2023-04-27T05:12:50.635Z,2.77
2023-04-27T05:13:50.711Z,2.18
2023-04-27T05:14:50.738Z,3.24
2023-04-27T05:15:50.773Z,2.48
2023-04-27T05:16:50.786Z,2.51
2023-04-27T05:17:50.878Z,2.56
2023-04-27T05:18:50.889Z,2.90
2023-04-27T05:19:50.909Z,2.75
2023-04-27T05:20:50.953Z,2.76
2023-04-27T05:21:50.939Z,2.54
2023-04-27T05:22:50.993Z,3.12
2023-04-27T05:23:51.034Z,3.12
2023-04-27T05:24:51.082Z,2.65
2023-04-27T05:25:51.064Z,2.91
2023-04-27T05:26:51.107Z,2.45
2023-04-27T05:27:51.140Z,3.02
2023-04-27T05:28:51.162Z,2.70
2023-04-27T05:29:51.200Z,2.80
2023-04-27T05:30:51.257Z,2.74
2023-04-27T05:31:51.333Z,3.06
2023-04-27T05:32:51.343Z,2.39
2023-04-27T05:33:51.325Z,2.73
2023-04-27T05:34:51.426Z,2.97
2023-04-27T05:35:51.631Z,3.15
2023-04-27T05:36:51.464Z,2.66
2023-04-27T05:37:51.482Z,2.74
2023-04-27T05:38:52.112Z,3.03
2023-04-27T05:39:51.546Z,2.68
2023-04-27T05:40:51.620Z,2.63
2023-04-27T05:41:51.645Z,2.79
2023-04-27T05:42:51.681Z,2.82
2023-04-27T05:43:51.726Z,2.82
2023-04-27T05:44:51.763Z,2.70
2023-04-27T05:45:51.803Z,2.66
2023-04-27T05:46:51.820Z,2.73
2023-04-27T05:47:51.895Z,2.65
2023-04-27T05:48:51.875Z,3.04
2023-04-27T05:49:51.888Z,2.88
2023-04-27T05:50:52.139Z,3.07
2023-04-27T05:51:51.995Z,2.76
2023-04-27T05:52:51.990Z,2.64
2023-04-27T05:53:52.004Z,2.59
2023-04-27T05:54:52.064Z,2.50
2023-04-27T05:55:52.085Z,2.89
2023-04-27T05:56:52.124Z,3.01
2023-04-27T05:58:04.615Z,3.22
2023-04-27T05:58:53.278Z,3.15
2023-04-27T05:59:52.143Z,2.84
2023-04-27T06:00:52.635Z,2.63
2023-04-27T06:01:52.187Z,2.79
2023-04-27T06:02:52.214Z,3.29
2023-04-27T06:03:52.242Z,3.05
2023-04-27T06:04:52.175Z,2.92
2023-04-27T06:05:52.141Z,2.98
2023-04-27T06:06:52.123Z,3.60
2023-04-27T06:07:52.106Z,3.52
2023-04-27T06:08:52.120Z,3.24
2023-04-27T06:09:52.082Z,2.98
2023-04-27T06:10:52.075Z,3.06
2023-04-27T06:11:52.050Z,3.21
2023-04-27T06:12:52.112Z,2.96
2023-04-27T06:13:52.068Z,3.03
2023-04-27T06:14:52.056Z,3.23
2023-04-27T06:15:52.071Z,3.30
2023-04-27T06:16:52.105Z,3.03
2023-04-27T06:17:52.127Z,3.02
2023-04-27T06:18:52.069Z,3.47
2023-04-27T06:19:52.090Z,2.92
2023-04-27T06:20:52.124Z,2.82
2023-04-27T06:21:52.086Z,3.27
2023-04-27T06:22:52.106Z,3.36
2023-04-27T06:23:52.108Z,3.07
2023-04-27T06:24:52.074Z,2.65
2023-04-27T06:25:52.121Z,3.60
2023-04-27T06:26:52.152Z,3.45
2023-04-27T06:27:52.176Z,2.57
2023-04-27T06:28:52.172Z,2.68
2023-04-27T06:29:52.212Z,2.90
2023-04-27T06:30:52.260Z,2.90
2023-04-27T06:31:52.376Z,3.06
2023-04-27T06:32:52.348Z,3.65
2023-04-27T06:33:52.372Z,3.23
2023-04-27T06:34:52.449Z,3.83
2023-04-27T06:35:52.678Z,3.08
2023-04-27T06:36:52.569Z,3.04
2023-04-27T06:37:52.824Z,3.40
2023-04-27T06:38:52.702Z,3.24
2023-04-27T06:39:52.754Z,3.33
2023-04-27T06:40:53.184Z,3.52
2023-04-27T06:41:52.841Z,2.76
2023-04-27T06:42:52.894Z,3.15
2023-04-27T06:43:52.955Z,3.46
2023-04-27T06:44:52.993Z,3.13
2023-04-27T06:45:53.060Z,3.21
2023-04-27T06:46:53.082Z,3.25
2023-04-27T06:47:53.146Z,3.42
2023-04-27T06:48:53.182Z,3.14
2023-04-27T06:49:53.233Z,3.22
2023-04-27T06:50:53.268Z,4.05
2023-04-27T06:51:53.282Z,3.49
2023-04-27T06:52:53.456Z,3.33
2023-04-27T06:53:53.365Z,3.45
2023-04-27T06:54:53.421Z,3.46
2023-04-27T06:55:53.443Z,3.62
2023-04-27T06:56:53.497Z,3.23
2023-04-27T06:57:53.542Z,3.77
2023-04-27T06:58:53.607Z,4.04
2023-04-27T06:59:53.634Z,3.41
2023-04-27T07:00:54.187Z,3.94
2023-04-27T07:01:53.799Z,4.14
2023-04-27T07:02:53.867Z,3.47
2023-04-27T07:03:53.933Z,4.13
2023-04-27T07:04:54.022Z,3.79
2023-04-27T07:05:54.132Z,3.62
2023-04-27T07:06:53.972Z,4.15
2023-04-27T07:07:54.016Z,3.64
2023-04-27T07:08:54.101Z,3.84
2023-04-27T07:09:54.097Z,3.82
2023-04-27T07:10:54.177Z,4.40
2023-04-27T07:11:54.323Z,5.16
2023-04-27T07:12:54.285Z,5.18
2023-04-27T07:13:54.346Z,5.44
2023-04-27T07:14:54.404Z,4.99
2023-04-27T07:15:54.505Z,5.51
2023-04-27T07:16:54.504Z,5.45
2023-04-27T07:17:54.528Z,5.48
2023-04-27T07:18:54.513Z,5.39
2023-04-27T07:19:54.567Z,5.70
2023-04-27T07:20:54.571Z,5.94
2023-04-27T07:21:54.598Z,6.31
2023-04-27T07:22:54.633Z,5.12
2023-04-27T07:23:56.066Z,6.36
2023-04-27T07:24:54.762Z,5.04
2023-04-27T07:25:54.810Z,5.35
2023-04-27T07:26:54.888Z,5.84
2023-04-27T07:27:54.912Z,5.24
2023-04-27T07:28:54.948Z,5.63
2023-04-27T07:29:54.998Z,5.89
2023-04-27T07:30:54.992Z,5.94
2023-04-27T07:31:55.053Z,5.25
2023-04-27T07:32:55.073Z,5.25
2023-04-27T07:33:55.096Z,5.66
2023-04-27T07:34:55.245Z,5.76
2023-04-27T07:35:55.329Z,6.45
2023-04-27T07:36:55.308Z,5.03
2023-04-27T07:37:55.298Z,5.32
2023-04-27T07:38:55.320Z,5.06
2023-04-27T07:39:55.338Z,5.06
2023-04-27T07:40:55.341Z,5.89
2023-04-27T07:41:55.352Z,6.04
2023-04-27T07:42:55.396Z,5.36
2023-04-27T07:43:55.391Z,5.41
2023-04-27T07:44:55.409Z,4.59
2023-04-27T07:45:55.745Z,5.09
2023-04-27T07:46:55.521Z,5.20
2023-04-27T07:47:56.429Z,5.07
2023-04-27T07:48:55.488Z,4.96
2023-04-27T07:49:55.478Z,5.17
2023-04-27T07:50:55.489Z,4.56
2023-04-27T07:51:55.481Z,4.30
2023-04-27T07:52:55.471Z,4.35
2023-04-27T07:53:55.470Z,4.85
2023-04-27T07:54:55.456Z,4.27
2023-04-27T07:55:55.484Z,4.24
2023-04-27T07:56:55.424Z,4.02
2023-04-27T07:57:55.461Z,4.63
2023-04-27T07:58:55.447Z,4.40
2023-04-27T07:59:55.468Z,4.35
2023-04-27T08:00:55.392Z,3.94
2023-04-27T08:01:59.419Z,4.29
2023-04-27T08:02:57.057Z,4.54
2023-04-27T08:03:55.604Z,4.10
2023-04-27T08:04:55.910Z,4.47
2023-04-27T08:05:55.740Z,4.31
2023-04-27T08:06:55.838Z,4.29
2023-04-27T08:07:55.410Z,4.64
2023-04-27T08:08:55.334Z,4.34
2023-04-27T08:09:55.338Z,3.81
2023-04-27T08:10:55.698Z,4.26
2023-04-27T08:11:55.394Z,4.30
2023-04-27T08:12:55.346Z,3.69
2023-04-27T08:13:55.331Z,3.94
2023-04-27T08:14:55.357Z,3.88
2023-04-27T08:15:55.325Z,4.11
2023-04-27T08:16:55.435Z,4.77
2023-04-27T08:17:55.357Z,3.57
2023-04-27T08:18:55.354Z,3.52
2023-04-27T08:19:55.338Z,3.75
2023-04-27T08:20:55.651Z,4.08
2023-04-27T08:21:55.455Z,3.88
2023-04-27T08:22:55.457Z,4.32
2023-04-27T08:23:55.443Z,4.20
2023-04-27T08:24:55.488Z,4.15
2023-04-27T08:25:55.502Z,3.94
2023-04-27T08:26:55.492Z,4.21
2023-04-27T08:27:55.548Z,4.02
2023-04-27T08:28:55.528Z,3.50
2023-04-27T08:29:55.558Z,4.08
2023-04-27T08:30:55.598Z,3.79
2023-04-27T08:31:56.903Z,3.38
2023-04-27T08:32:55.625Z,3.72
2023-04-27T08:33:55.584Z,3.52
2023-04-27T08:34:55.585Z,3.93
2023-04-27T08:35:55.616Z,3.70
2023-04-27T08:36:55.616Z,3.93
2023-04-27T08:37:55.610Z,3.34
2023-04-27T08:38:55.610Z,4.16
2023-04-27T08:39:55.642Z,3.34
2023-04-27T08:40:55.647Z,3.46
2023-04-27T08:41:55.638Z,4.02
2023-04-27T08:42:55.657Z,3.87
2023-04-27T08:43:56.820Z,3.83
2023-04-27T08:44:55.623Z,3.85
2023-04-27T08:45:55.688Z,3.32
2023-04-27T08:46:55.745Z,3.71
2023-04-27T08:47:55.827Z,3.88
2023-04-27T08:48:55.808Z,3.44
2023-04-27T08:49:55.807Z,3.98
2023-04-27T08:50:55.839Z,3.95
2023-04-27T08:51:55.806Z,3.49
2023-04-27T08:52:55.866Z,4.07
2023-04-27T08:53:55.852Z,4.13
2023-04-27T08:54:55.928Z,3.12
2023-04-27T08:55:55.825Z,3.40
2023-04-27T08:56:55.861Z,3.24
2023-04-27T08:57:55.853Z,4.03
2023-04-27T08:58:55.873Z,3.86
2023-04-27T08:59:55.862Z,3.45
2023-04-27T09:00:55.838Z,4.83
2023-04-27T09:01:55.914Z,3.55
2023-04-27T09:02:56.045Z,3.54
2023-04-27T09:03:56.212Z,3.89
2023-04-27T09:04:56.063Z,4.10
2023-04-27T09:06:04.356Z,3.63
2023-04-27T09:06:56.958Z,3.90
2023-04-27T09:07:55.938Z,3.76
2023-04-27T09:08:55.929Z,3.56
2023-04-27T09:09:55.947Z,4.09
2023-04-27T09:10:55.955Z,3.71
2023-04-27T09:11:55.917Z,3.58
2023-04-27T09:12:55.926Z,3.42
2023-04-27T09:13:55.942Z,3.59
2023-04-27T09:14:55.879Z,3.38
2023-04-27T09:15:55.889Z,3.94
2023-04-27T09:16:55.880Z,4.09
2023-04-27T09:17:55.870Z,3.48
2023-04-27T09:18:55.870Z,3.39
2023-04-27T09:19:55.848Z,3.37
2023-04-27T09:20:55.852Z,3.59
2023-04-27T09:21:55.825Z,3.00
2023-04-27T09:22:55.865Z,3.16
2023-04-27T09:23:55.906Z,3.94
2023-04-27T09:24:55.964Z,4.06
2023-04-27T09:25:56.012Z,3.57
2023-04-27T09:26:55.993Z,3.23
2023-04-27T09:27:56.030Z,3.31
2023-04-27T09:28:56.098Z,3.22
2023-04-27T09:29:56.119Z,3.66
2023-04-27T09:30:56.162Z,3.64
2023-04-27T09:31:56.219Z,3.11
2023-04-27T09:32:56.272Z,3.65
2023-04-27T09:33:56.233Z,3.62
2023-04-27T09:34:56.246Z,3.68
2023-04-27T09:35:56.285Z,4.39
2023-04-27T09:36:56.345Z,3.18
2023-04-27T09:37:56.377Z,3.53
2023-04-27T09:38:56.393Z,2.63
2023-04-27T09:39:56.428Z,3.08
2023-04-27T09:40:56.481Z,3.62
2023-04-27T09:41:56.474Z,3.18
2023-04-27T09:42:56.518Z,3.36
2023-04-27T09:43:57.844Z,3.37
2023-04-27T09:44:56.613Z,3.48
2023-04-27T09:45:56.615Z,3.57
2023-04-27T09:46:56.661Z,3.01
2023-04-27T09:47:56.718Z,3.54
2023-04-27T09:48:56.738Z,3.09
2023-04-27T09:49:56.732Z,3.17
2023-04-27T09:50:56.817Z,3.28
2023-04-27T09:51:56.782Z,2.88
2023-04-27T09:52:56.860Z,3.13
2023-04-27T09:53:56.887Z,3.49
2023-04-27T09:54:56.900Z,3.10
2023-04-27T09:55:57.258Z,3.39
2023-04-27T09:56:56.969Z,2.97
2023-04-27T09:57:56.985Z,3.41
2023-04-27T09:58:59.696Z,3.32
2023-04-27T09:59:57.019Z,3.38
2023-04-27T10:00:57.065Z,3.43
2023-04-27T10:01:56.998Z,2.96
2023-04-27T10:02:57.557Z,3.86
2023-04-27T10:03:57.138Z,2.58
2023-04-27T10:04:57.043Z,3.59
2023-04-27T10:05:56.958Z,3.44
2023-04-27T10:06:57.966Z,2.76
2023-04-27T10:07:56.956Z,3.09
2023-04-27T10:08:56.965Z,2.82
2023-04-27T10:09:56.927Z,3.36
2023-04-27T10:10:56.937Z,2.68
2023-04-27T10:11:56.923Z,3.03
2023-04-27T10:12:56.926Z,3.03
2023-04-27T10:13:56.892Z,3.14
2023-04-27T10:14:56.894Z,3.19
2023-04-27T10:15:56.891Z,2.99
2023-04-27T10:16:56.936Z,3.32
2023-04-27T10:17:56.950Z,2.54
2023-04-27T10:18:56.884Z,3.14
2023-04-27T10:19:58.287Z,2.62
2023-04-27T10:20:56.860Z,2.80
2023-04-27T10:21:57.222Z,3.40
2023-04-27T10:22:56.828Z,3.19
2023-04-27T10:23:56.841Z,3.06
2023-04-27T10:24:56.799Z,2.93
2023-04-27T10:25:56.825Z,3.09
2023-04-27T10:26:56.810Z,2.27
2023-04-27T10:27:56.801Z,3.03
2023-04-27T10:28:56.800Z,3.08
2023-04-27T10:29:56.779Z,2.68
2023-04-27T10:30:56.809Z,2.83
2023-04-27T10:31:56.802Z,2.54
2023-04-27T10:32:56.848Z,2.67
2023-04-27T10:33:56.792Z,2.99
2023-04-27T10:34:56.733Z,3.30
2023-04-27T10:35:56.741Z,2.56
2023-04-27T10:36:56.742Z,2.68
2023-04-27T10:37:56.768Z,2.36
2023-04-27T10:38:56.739Z,2.56
2023-04-27T10:39:56.719Z,3.01
2023-04-27T10:40:56.721Z,3.01
2023-04-27T10:41:56.766Z,2.77
2023-04-27T10:42:56.731Z,2.93
2023-04-27T10:43:56.721Z,2.88
2023-04-27T10:44:56.719Z,3.06
2023-04-27T10:45:56.739Z,2.87
2023-04-27T10:46:56.715Z,2.83
2023-04-27T10:47:56.724Z,2.91
2023-04-27T10:48:56.690Z,2.53
2023-04-27T10:49:56.697Z,3.57
2023-04-27T10:50:56.680Z,2.73
2023-04-27T10:51:56.671Z,2.77
2023-04-27T10:52:56.654Z,2.88
2023-04-27T10:53:56.663Z,2.90
2023-04-27T10:54:56.617Z,3.08
2023-04-27T10:55:56.694Z,3.92
2023-04-27T10:56:56.717Z,3.82
2023-04-27T10:57:56.785Z,3.76
2023-04-27T10:58:56.855Z,3.91
2023-04-27T10:59:56.915Z,3.33
2023-04-27T11:00:56.923Z,3.99
2023-04-27T11:01:57.043Z,4.16
2023-04-27T11:02:57.206Z,3.51
2023-04-27T11:03:57.122Z,3.43
2023-04-27T11:04:57.227Z,3.68
2023-04-27T11:05:58.078Z,3.72
2023-04-27T11:06:57.745Z,3.74
2023-04-27T11:07:57.358Z,3.66
2023-04-27T11:08:57.426Z,3.90
2023-04-27T11:09:57.500Z,3.80
2023-04-27T11:10:57.624Z,3.46
2023-04-27T11:11:57.567Z,3.87
2023-04-27T11:12:57.610Z,3.59
2023-04-27T11:13:57.656Z,3.96
2023-04-27T11:14:57.677Z,3.14
2023-04-27T11:15:57.769Z,4.37
2023-04-27T11:16:57.776Z,3.78
2023-04-27T11:17:57.778Z,3.99
2023-04-27T11:18:59.206Z,3.68
2023-04-27T11:19:57.852Z,3.65
2023-04-27T11:20:57.888Z,3.37
2023-04-27T11:21:58.248Z,3.55
2023-04-27T11:22:57.922Z,3.82
2023-04-27T11:23:57.946Z,3.67
2023-04-27T11:24:57.991Z,3.75
2023-04-27T11:25:58.044Z,3.53
2023-04-27T11:26:58.050Z,2.95
2023-04-27T11:27:58.063Z,3.45
2023-04-27T11:28:58.075Z,2.97
2023-04-27T11:29:58.124Z,3.10
2023-04-27T11:30:58.141Z,3.26
2023-04-27T11:31:58.243Z,3.48
2023-04-27T11:32:58.172Z,3.09
2023-04-27T11:33:58.168Z,3.51
2023-04-27T11:34:59.670Z,2.89
2023-04-27T11:35:58.251Z,3.48
2023-04-27T11:37:07.124Z,3.70
2023-04-27T11:37:59.249Z,3.01
2023-04-27T11:38:58.246Z,3.23
2023-04-27T11:39:58.200Z,3.53
2023-04-27T11:40:58.234Z,3.44
2023-04-27T11:41:58.235Z,3.26
2023-04-27T11:42:58.200Z,3.08
2023-04-27T11:43:58.186Z,3.26
2023-04-27T11:44:58.201Z,3.32
2023-04-27T11:45:58.162Z,3.35
2023-04-27T11:46:58.154Z,3.40
2023-04-27T11:47:58.167Z,3.22
2023-04-27T11:48:58.151Z,2.96
2023-04-27T11:49:58.169Z,2.94
2023-04-27T11:50:58.136Z,3.12
2023-04-27T11:51:58.288Z,2.81
2023-04-27T11:52:58.152Z,3.54
2023-04-27T11:53:58.136Z,3.50
2023-04-27T11:54:58.219Z,3.34
2023-04-27T11:55:58.202Z,3.19
2023-04-27T11:56:58.268Z,3.06
2023-04-27T11:57:58.351Z,3.33
2023-04-27T11:58:58.370Z,2.86
2023-04-27T11:59:58.369Z,3.00
2023-04-27T12:00:58.469Z,2.99
2023-04-27T12:01:58.505Z,3.07
2023-04-27T12:02:58.783Z,2.91
2023-04-27T12:04:01.510Z,3.34
2023-04-27T12:04:58.720Z,2.72
2023-04-27T12:06:07.686Z,3.01
2023-04-27T12:06:59.596Z,2.88
2023-04-27T12:07:58.572Z,3.10
2023-04-27T12:08:58.573Z,2.96
2023-04-27T12:10:00.724Z,2.62
2023-04-27T12:10:58.714Z,2.97
2023-04-27T12:11:58.697Z,2.85
2023-04-27T12:12:58.737Z,3.19
2023-04-27T12:13:58.827Z,3.46
2023-04-27T12:14:58.809Z,3.01
2023-04-27T12:16:00.419Z,3.77
2023-04-27T12:16:58.927Z,2.96
2023-04-27T12:17:59.014Z,3.31
2023-04-27T12:18:58.996Z,3.87
2023-04-27T12:19:59.035Z,3.57
2023-04-27T12:21:02.794Z,2.91
2023-04-27T12:21:59.048Z,3.27
2023-04-27T12:22:59.034Z,2.66
2023-04-27T12:23:59.017Z,3.45
2023-04-27T12:24:59.037Z,2.95
2023-04-27T12:25:59.038Z,3.32
2023-04-27T12:26:59.065Z,2.73
2023-04-27T12:27:59.007Z,3.09
2023-04-27T12:28:58.982Z,3.40
2023-04-27T12:29:59.009Z,3.32
2023-04-27T12:30:59.056Z,2.88
2023-04-27T12:31:59.288Z,3.27
2023-04-27T12:32:59.050Z,2.80
2023-04-27T12:33:58.978Z,3.09
2023-04-27T12:34:58.953Z,2.93
2023-04-27T12:35:59.008Z,2.93
2023-04-27T12:36:59.282Z,2.92
2023-04-27T12:37:58.955Z,3.01
2023-04-27T12:38:58.961Z,2.94
2023-04-27T12:39:58.962Z,2.37
2023-04-27T12:40:59.780Z,2.76
2023-04-27T12:41:58.955Z,3.04
2023-04-27T12:43:01.051Z,3.37
2023-04-27T12:43:58.973Z,2.91
2023-04-27T12:44:58.988Z,2.70
2023-04-27T12:45:59.096Z,2.55
2023-04-27T12:46:59.096Z,3.22
2023-04-27T12:48:03.772Z,2.62
2023-04-27T12:49:00.146Z,2.31
2023-04-27T12:49:59.150Z,2.93
2023-04-27T12:50:59.114Z,2.92
2023-04-27T12:51:59.139Z,2.80
2023-04-27T12:52:59.130Z,2.84
2023-04-27T12:54:00.914Z,2.71
2023-04-27T12:54:59.077Z,2.86
2023-04-27T12:55:59.070Z,2.66
2023-04-27T12:56:59.077Z,2.52
2023-04-27T12:57:59.067Z,2.50
2023-04-27T12:58:59.064Z,3.06
2023-04-27T13:00:01.586Z,2.89
2023-04-27T13:01:06.091Z,2.99
2023-04-27T13:01:59.337Z,2.84
2023-04-27T13:02:59.149Z,3.61
2023-04-27T13:03:59.230Z,4.53
2023-04-27T13:04:59.141Z,4.58
2023-04-27T13:05:59.039Z,4.43
2023-04-27T13:06:59.025Z,5.38
2023-04-27T13:07:59.002Z,5.01
2023-04-27T13:08:58.986Z,3.43
2023-04-27T13:09:58.994Z,6.40
2023-04-27T13:10:58.998Z,4.48
2023-04-27T13:12:01.393Z,4.23
2023-04-27T13:12:58.986Z,4.98
2023-04-27T13:13:58.971Z,5.59
2023-04-27T13:14:58.948Z,4.69
2023-04-27T13:15:58.962Z,5.03
2023-04-27T13:16:58.931Z,5.62
2023-04-27T13:17:59.061Z,4.46
2023-04-27T13:18:58.941Z,5.65